Oosterhout, Netherlands
Current Conditions -  °F | °C
As of 7:25 AM on Thursday 29 Jan 2015 (Local Time) from EHGR Reporting Station
Moderate Rain Moderate Rain  
Wind Chill: 27°   Ceiling: 4000
Heat Index: 36°   Visibility: 5mi
Dew Point: 32°   Wind: 14mph
Humidity: 87%   Direction: 230°SW
Pressure: 29.23"   Gusts: NA
Location:  51.65°N, 4.86°E
Report Text: EHGR 290625Z AUTO 23012KT 8000 DZRA FEW009 SCT021 BKN040 02/00 Q0990 WHT
Loading
Personal Weather Stations






























Interactive Weather Map New forecast layout! Learn more

10-Day Weather Forecast

Advertisements
Track Severe Weather on mobile